GLET20 YSNW-YSNW
Flight info
| Callsign | GLET20 |
|---|---|
| Flight time | 1h 1m |
| Altitude | 3500 |
| Route | VFR |
| Aircraft | H60/M-SDFHITUY/C |
Departure
| Time | 2026-05-06 05:15 |
|---|---|
| Airport | Naval Air Station Nowra - HMAS Albatross (YSNW) |
Arrival
| Time | 2026-05-06 06:17 |
|---|---|
| Airport | Naval Air Station Nowra - HMAS Albatross (YSNW) |
| Time | Latitude | Longitude | Altitude | Speed | Heading |
|---|---|---|---|---|---|
| 2026-05-06 05:03 | -34.94458 | 150.53498 | 356 ft | 0 kts | 225° |
| 2026-05-06 05:12 | -34.94459 | 150.53497 | 358 ft | 0 kts | 224° |
| 2026-05-06 05:12 | -34.94467 | 150.53488 | 363 ft | 4 kts | 221° |
| 2026-05-06 05:13 | -34.94500 | 150.53497 | 362 ft | 6 kts | 203° |
| 2026-05-06 05:13 | -34.94535 | 150.53456 | 364 ft | 8 kts | 223° |
| 2026-05-06 05:13 | -34.94580 | 150.53406 | 361 ft | 10 kts | 207° |
| 2026-05-06 05:13 | -34.94641 | 150.53395 | 362 ft | 8 kts | 185° |
| 2026-05-06 05:14 | -34.94706 | 150.53388 | 363 ft | 10 kts | 184° |
| 2026-05-06 05:14 | -34.94755 | 150.53416 | 362 ft | 9 kts | 97° |
| 2026-05-06 05:14 | -34.94758 | 150.53462 | 363 ft | 1 kts | 92° |
| 2026-05-06 05:14 | -34.94756 | 150.53468 | 375 ft | 5 kts | 98° |
| 2026-05-06 05:15 | -34.94777 | 150.53723 | 467 ft | 55 kts | 94° |
| 2026-05-06 05:15 | -34.94841 | 150.54434 | 738 ft | 108 kts | 95° |
| 2026-05-06 05:15 | -34.94906 | 150.55451 | 953 ft | 128 kts | 92° |
| 2026-05-06 05:15 | -34.95380 | 150.56402 | 1034 ft | 141 kts | 132° |
| 2026-05-06 05:16 | -34.96177 | 150.57162 | 1026 ft | 149 kts | 139° |
| 2026-05-06 05:16 | -34.97003 | 150.57911 | 1080 ft | 146 kts | 141° |
| 2026-05-06 05:16 | -34.97799 | 150.58638 | 1182 ft | 144 kts | 139° |
| 2026-05-06 05:16 | -34.98602 | 150.59363 | 1327 ft | 143 kts | 141° |
| 2026-05-06 05:17 | -34.99409 | 150.60078 | 1478 ft | 143 kts | 142° |
| 2026-05-06 05:17 | -35.00218 | 150.60783 | 1630 ft | 143 kts | 142° |
| 2026-05-06 05:17 | -35.01052 | 150.61466 | 1752 ft | 147 kts | 144° |
| 2026-05-06 05:17 | -35.01960 | 150.62086 | 1762 ft | 152 kts | 149° |
| 2026-05-06 05:18 | -35.02914 | 150.62702 | 1697 ft | 158 kts | 149° |
| 2026-05-06 05:18 | -35.03874 | 150.63382 | 1569 ft | 160 kts | 146° |
| 2026-05-06 05:18 | -35.04852 | 150.63988 | 1537 ft | 156 kts | 152° |
| 2026-05-06 05:18 | -35.05862 | 150.64469 | 1551 ft | 155 kts | 157° |
| 2026-05-06 05:19 | -35.06879 | 150.64921 | 1550 ft | 156 kts | 158° |
| 2026-05-06 05:19 | -35.07891 | 150.65424 | 1512 ft | 158 kts | 152° |
| 2026-05-06 05:19 | -35.08881 | 150.66002 | 1465 ft | 156 kts | 152° |
| 2026-05-06 05:19 | -35.09840 | 150.66573 | 1480 ft | 150 kts | 151° |
| 2026-05-06 05:20 | -35.10745 | 150.67185 | 1559 ft | 147 kts | 147° |
| 2026-05-06 05:20 | -35.11603 | 150.67859 | 1673 ft | 145 kts | 141° |
| 2026-05-06 05:20 | -35.12410 | 150.68588 | 1824 ft | 144 kts | 139° |
| 2026-05-06 05:20 | -35.13175 | 150.69371 | 2011 ft | 143 kts | 136° |
| 2026-05-06 05:21 | -35.13925 | 150.70215 | 2151 ft | 151 kts | 133° |
| 2026-05-06 05:21 | -35.14711 | 150.71136 | 2089 ft | 162 kts | 133° |
| 2026-05-06 05:21 | -35.15369 | 150.72239 | 1904 ft | 158 kts | 107° |
| 2026-05-06 05:21 | -35.15462 | 150.73471 | 1885 ft | 141 kts | 77° |
| 2026-05-06 05:22 | -35.15018 | 150.74548 | 1636 ft | 150 kts | 47° |
| 2026-05-06 05:22 | -35.14347 | 150.75570 | 1344 ft | 154 kts | 47° |
| 2026-05-06 05:22 | -35.13572 | 150.76388 | 1304 ft | 142 kts | 34° |
| 2026-05-06 05:22 | -35.12838 | 150.77111 | 1459 ft | 130 kts | 39° |
| 2026-05-06 05:23 | -35.12192 | 150.77855 | 1695 ft | 126 kts | 41° |
| 2026-05-06 05:23 | -35.11549 | 150.78605 | 1884 ft | 133 kts | 40° |
| 2026-05-06 05:23 | -35.10080 | 150.80206 | 1741 ft | 141 kts | 37° |
| 2026-05-06 05:24 | -35.09364 | 150.80972 | 1825 ft | 133 kts | 39° |
| 2026-05-06 05:24 | -35.08640 | 150.81659 | 1929 ft | 131 kts | 32° |
| 2026-05-06 05:24 | -35.08120 | 150.82035 | 1981 ft | 131 kts | 25° |
| 2026-05-06 05:24 | -35.07286 | 150.82469 | 2017 ft | 131 kts | 17° |
| 2026-05-06 05:25 | -35.06398 | 150.82732 | 2044 ft | 132 kts | 9° |
| 2026-05-06 05:25 | -35.05474 | 150.82818 | 2054 ft | 134 kts | 0° |
| 2026-05-06 05:25 | -35.04540 | 150.82714 | 2033 ft | 135 kts | 352° |
| 2026-05-06 05:25 | -35.03338 | 150.82282 | 2008 ft | 137 kts | 339° |
| 2026-05-06 05:26 | -35.02465 | 150.81785 | 2001 ft | 140 kts | 338° |
| 2026-05-06 05:26 | -35.01855 | 150.81459 | 1936 ft | 143 kts | 338° |
| 2026-05-06 05:26 | -35.00957 | 150.80914 | 1863 ft | 145 kts | 334° |
| 2026-05-06 05:26 | -35.00122 | 150.80220 | 1798 ft | 146 kts | 325° |
| 2026-05-06 05:27 | -34.99292 | 150.79509 | 1709 ft | 146 kts | 335° |
| 2026-05-06 05:27 | -34.98359 | 150.79020 | 1608 ft | 145 kts | 341° |
| 2026-05-06 05:27 | -34.97400 | 150.78710 | 1597 ft | 140 kts | 348° |
| 2026-05-06 05:27 | -34.96466 | 150.78434 | 1631 ft | 137 kts | 349° |
| 2026-05-06 05:28 | -34.95541 | 150.78200 | 1687 ft | 135 kts | 352° |
| 2026-05-06 05:28 | -34.94597 | 150.78063 | 1658 ft | 138 kts | 356° |
| 2026-05-06 05:28 | -34.93639 | 150.77943 | 1604 ft | 139 kts | 354° |
| 2026-05-06 05:28 | -34.92681 | 150.77740 | 1578 ft | 140 kts | 352° |
| 2026-05-06 05:29 | -34.91722 | 150.77534 | 1556 ft | 140 kts | 352° |
| 2026-05-06 05:29 | -34.90770 | 150.77318 | 1544 ft | 139 kts | 351° |
| 2026-05-06 05:29 | -34.89827 | 150.77083 | 1547 ft | 138 kts | 350° |
| 2026-05-06 05:29 | -34.88888 | 150.76829 | 1565 ft | 138 kts | 350° |
| 2026-05-06 05:30 | -34.87974 | 150.76561 | 1577 ft | 137 kts | 349° |
| 2026-05-06 05:30 | -34.87051 | 150.76277 | 1583 ft | 137 kts | 349° |
| 2026-05-06 05:30 | -34.86101 | 150.76179 | 1566 ft | 138 kts | 3° |
| 2026-05-06 05:30 | -34.85151 | 150.76349 | 1569 ft | 137 kts | 14° |
| 2026-05-06 05:31 | -34.84254 | 150.76749 | 1581 ft | 138 kts | 26° |
| 2026-05-06 05:31 | -34.83439 | 150.77369 | 1601 ft | 139 kts | 36° |
| 2026-05-06 05:31 | -34.82676 | 150.78070 | 1626 ft | 137 kts | 36° |
| 2026-05-06 05:31 | -34.81912 | 150.78760 | 1638 ft | 137 kts | 35° |
| 2026-05-06 05:32 | -34.81142 | 150.79450 | 1635 ft | 138 kts | 35° |
| 2026-05-06 05:32 | -34.80365 | 150.80143 | 1636 ft | 138 kts | 33° |
| 2026-05-06 05:32 | -34.79585 | 150.80813 | 1676 ft | 136 kts | 33° |
| 2026-05-06 05:32 | -34.78776 | 150.81398 | 1731 ft | 135 kts | 28° |
| 2026-05-06 05:33 | -34.77928 | 150.81873 | 1791 ft | 134 kts | 22° |
| 2026-05-06 05:33 | -34.77083 | 150.82341 | 1851 ft | 133 kts | 25° |
| 2026-05-06 05:33 | -34.76251 | 150.82845 | 1904 ft | 135 kts | 26° |
| 2026-05-06 05:33 | -34.75430 | 150.83386 | 1931 ft | 134 kts | 28° |
| 2026-05-06 05:34 | -34.74624 | 150.83958 | 1943 ft | 135 kts | 30° |
| 2026-05-06 05:34 | -34.73823 | 150.84572 | 1957 ft | 136 kts | 32° |
| 2026-05-06 05:34 | -34.73035 | 150.85218 | 1969 ft | 137 kts | 33° |
| 2026-05-06 05:34 | -34.72264 | 150.85891 | 1971 ft | 137 kts | 34° |
| 2026-05-06 05:35 | -34.71506 | 150.86593 | 1969 ft | 137 kts | 36° |
| 2026-05-06 05:35 | -34.70766 | 150.87321 | 1970 ft | 137 kts | 38° |
| 2026-05-06 05:35 | -34.70038 | 150.88083 | 1972 ft | 138 kts | 40° |
| 2026-05-06 05:35 | -34.69294 | 150.88803 | 1953 ft | 137 kts | 27° |
| 2026-05-06 05:36 | -34.68317 | 150.88825 | 1585 ft | 148 kts | 347° |
| 2026-05-06 05:36 | -34.67423 | 150.88393 | 1064 ft | 129 kts | 341° |
| 2026-05-06 05:36 | -34.66683 | 150.87897 | 624 ft | 113 kts | 330° |
| 2026-05-06 05:36 | -34.66169 | 150.87301 | 360 ft | 90 kts | 318° |
| 2026-05-06 05:37 | -34.65831 | 150.86796 | 263 ft | 64 kts | 314° |
| 2026-05-06 05:37 | -34.65650 | 150.86412 | 204 ft | 38 kts | 300° |
| 2026-05-06 05:37 | -34.65542 | 150.86215 | 134 ft | 21 kts | 279° |
| 2026-05-06 05:37 | -34.65490 | 150.86144 | 65 ft | 8 kts | 200° |
| 2026-05-06 05:38 | -34.65653 | 150.86102 | 85 ft | 39 kts | 184° |
| 2026-05-06 05:38 | -34.66023 | 150.86037 | 203 ft | 68 kts | 179° |
| 2026-05-06 05:38 | -34.66505 | 150.85974 | 220 ft | 57 kts | 167° |
| 2026-05-06 05:38 | -34.66735 | 150.85993 | 163 ft | 15 kts | 158° |
| 2026-05-06 05:39 | -34.66801 | 150.85987 | 87 ft | 8 kts | 151° |
| 2026-05-06 05:39 | -34.66859 | 150.86015 | 68 ft | 11 kts | 148° |
| 2026-05-06 05:39 | -34.66934 | 150.86052 | 70 ft | 12 kts | 135° |
| 2026-05-06 05:39 | -34.66721 | 150.86274 | 176 ft | 78 kts | 29° |
| 2026-05-06 05:40 | -34.66023 | 150.86441 | 395 ft | 123 kts | 14° |
| 2026-05-06 05:40 | -34.65166 | 150.86702 | 613 ft | 131 kts | 19° |
| 2026-05-06 05:40 | -34.64284 | 150.87104 | 678 ft | 139 kts | 26° |
| 2026-05-06 05:40 | -34.63423 | 150.87634 | 712 ft | 140 kts | 31° |
| 2026-05-06 05:41 | -34.62588 | 150.88256 | 740 ft | 141 kts | 35° |
| 2026-05-06 05:41 | -34.61780 | 150.88936 | 765 ft | 141 kts | 37° |
| 2026-05-06 05:41 | -34.61000 | 150.89655 | 772 ft | 140 kts | 39° |
| 2026-05-06 05:41 | -34.60214 | 150.90356 | 784 ft | 141 kts | 28° |
| 2026-05-06 05:42 | -34.59235 | 150.90289 | 568 ft | 152 kts | 335° |
| 2026-05-06 05:42 | -34.58596 | 150.89319 | 574 ft | 142 kts | 305° |
| 2026-05-06 05:42 | -34.57963 | 150.88458 | 875 ft | 135 kts | 327° |
| 2026-05-06 05:42 | -34.57083 | 150.88084 | 982 ft | 137 kts | 354° |
| 2026-05-06 05:43 | -34.56119 | 150.88185 | 942 ft | 142 kts | 15° |
| 2026-05-06 05:43 | -34.55198 | 150.88573 | 955 ft | 138 kts | 25° |
| 2026-05-06 05:43 | -34.54334 | 150.89047 | 1061 ft | 136 kts | 26° |
| 2026-05-06 05:43 | -34.53470 | 150.89496 | 1169 ft | 136 kts | 23° |
| 2026-05-06 05:44 | -34.52597 | 150.89963 | 1194 ft | 140 kts | 28° |
| 2026-05-06 05:44 | -34.51750 | 150.90582 | 1115 ft | 142 kts | 28° |
| 2026-05-06 05:44 | -34.50856 | 150.91045 | 1118 ft | 139 kts | 19° |
| 2026-05-06 05:44 | -34.49903 | 150.91313 | 1115 ft | 143 kts | 11° |
| 2026-05-06 05:45 | -34.48892 | 150.91479 | 1043 ft | 151 kts | 9° |
| 2026-05-06 05:45 | -34.47813 | 150.91539 | 894 ft | 158 kts | 1° |
| 2026-05-06 05:45 | -34.46721 | 150.91345 | 714 ft | 160 kts | 350° |
| 2026-05-06 05:45 | -34.45703 | 150.90949 | 568 ft | 142 kts | 345° |
| 2026-05-06 05:46 | -34.44832 | 150.90721 | 693 ft | 119 kts | 356° |
| 2026-05-06 05:46 | -34.44069 | 150.90673 | 945 ft | 105 kts | 1° |
| 2026-05-06 05:46 | -34.43352 | 150.90665 | 1198 ft | 101 kts | 1° |
| 2026-05-06 05:46 | -34.42656 | 150.90654 | 1458 ft | 99 kts | 1° |
| 2026-05-06 05:47 | -34.41965 | 150.90636 | 1740 ft | 102 kts | 5° |
| 2026-05-06 05:47 | -34.41621 | 150.91406 | 1623 ft | 131 kts | 99° |
| 2026-05-06 05:47 | -34.42400 | 150.91833 | 1505 ft | 142 kts | 187° |
| 2026-05-06 05:47 | -34.43391 | 150.91682 | 1716 ft | 146 kts | 184° |
| 2026-05-06 05:48 | -34.44445 | 150.91647 | 1744 ft | 156 kts | 179° |
| 2026-05-06 05:48 | -34.45560 | 150.91797 | 1581 ft | 165 kts | 169° |
| 2026-05-06 05:48 | -34.46679 | 150.92090 | 1486 ft | 158 kts | 167° |
| 2026-05-06 05:48 | -34.47737 | 150.92222 | 1667 ft | 149 kts | 175° |
| 2026-05-06 05:49 | -34.48754 | 150.92177 | 1932 ft | 144 kts | 185° |
| 2026-05-06 05:49 | -34.49612 | 150.91630 | 2067 ft | 148 kts | 229° |
| 2026-05-06 05:49 | -34.50310 | 150.90615 | 1890 ft | 164 kts | 234° |
| 2026-05-06 05:49 | -34.50986 | 150.89494 | 1681 ft | 169 kts | 237° |
| 2026-05-06 05:50 | -34.51624 | 150.88301 | 1519 ft | 166 kts | 244° |
| 2026-05-06 05:50 | -34.52128 | 150.87098 | 1598 ft | 155 kts | 248° |
| 2026-05-06 05:50 | -34.52597 | 150.85945 | 1725 ft | 151 kts | 245° |
| 2026-05-06 05:50 | -34.53153 | 150.84862 | 1814 ft | 151 kts | 240° |
| 2026-05-06 05:51 | -34.53725 | 150.83828 | 1481 ft | 144 kts | 238° |
| 2026-05-06 05:51 | -34.54255 | 150.82872 | 1168 ft | 128 kts | 239° |
| 2026-05-06 05:51 | -34.54709 | 150.82050 | 1144 ft | 107 kts | 236° |
| 2026-05-06 05:51 | -34.55117 | 150.81394 | 1273 ft | 89 kts | 234° |
| 2026-05-06 05:52 | -34.55462 | 150.80758 | 1292 ft | 95 kts | 245° |
| 2026-05-06 05:52 | -34.55769 | 150.80000 | 1185 ft | 106 kts | 249° |
| 2026-05-06 05:52 | -34.56055 | 150.79131 | 985 ft | 116 kts | 255° |
| 2026-05-06 05:52 | -34.56331 | 150.78177 | 685 ft | 119 kts | 242° |
| 2026-05-06 05:53 | -34.56900 | 150.78014 | 303 ft | 74 kts | 120° |
| 2026-05-06 05:53 | -34.56869 | 150.78499 | 249 ft | 47 kts | 78° |
| 2026-05-06 05:53 | -34.56767 | 150.78776 | 138 ft | 36 kts | 51° |
| 2026-05-06 05:53 | -34.56557 | 150.78845 | 89 ft | 27 kts | 359° |
| 2026-05-06 05:54 | -34.56452 | 150.78833 | 46 ft | 4 kts | 351° |
| 2026-05-06 05:54 | -34.56437 | 150.78834 | 46 ft | 5 kts | 351° |
| 2026-05-06 05:54 | -34.56361 | 150.78814 | 45 ft | 16 kts | 357° |
| 2026-05-06 05:54 | -34.56262 | 150.78818 | 45 ft | 14 kts | 19° |
| 2026-05-06 05:55 | -34.56183 | 150.78861 | 44 ft | 7 kts | 29° |
| 2026-05-06 05:55 | -34.56142 | 150.78890 | 44 ft | 7 kts | 29° |
| 2026-05-06 05:55 | -34.56104 | 150.78925 | 44 ft | 6 kts | 38° |
| 2026-05-06 05:55 | -34.56073 | 150.78950 | 45 ft | 6 kts | 93° |
| 2026-05-06 05:56 | -34.56055 | 150.78982 | 40 ft | 5 kts | 216° |
| 2026-05-06 05:56 | -34.56055 | 150.78983 | 36 ft | 4 kts | 225° |
| 2026-05-06 05:56 | -34.56054 | 150.78986 | 38 ft | 10 kts | 235° |
| 2026-05-06 05:56 | -34.56150 | 150.78875 | 43 ft | 28 kts | 212° |
| 2026-05-06 05:57 | -34.56218 | 150.78788 | 48 ft | 15 kts | 349° |
| 2026-05-06 05:57 | -34.55870 | 150.78715 | 265 ft | 79 kts | 353° |
| 2026-05-06 05:57 | -34.55142 | 150.78531 | 486 ft | 130 kts | 353° |
| 2026-05-06 05:57 | -34.54500 | 150.77831 | 506 ft | 138 kts | 278° |
| 2026-05-06 05:58 | -34.55012 | 150.77047 | 894 ft | 118 kts | 212° |
| 2026-05-06 05:58 | -34.55713 | 150.76392 | 1335 ft | 137 kts | 221° |
| 2026-05-06 05:58 | -34.56438 | 150.75575 | 1509 ft | 151 kts | 226° |
| 2026-05-06 05:58 | -34.57221 | 150.74678 | 1543 ft | 154 kts | 222° |
| 2026-05-06 05:59 | -34.58062 | 150.73926 | 1672 ft | 148 kts | 213° |
| 2026-05-06 05:59 | -34.58925 | 150.73323 | 1928 ft | 136 kts | 210° |
| 2026-05-06 05:59 | -34.59692 | 150.72803 | 2527 ft | 117 kts | 212° |
| 2026-05-06 05:59 | -34.60411 | 150.72420 | 3129 ft | 118 kts | 197° |
| 2026-05-06 06:00 | -34.61282 | 150.72696 | 3289 ft | 145 kts | 158° |
| 2026-05-06 06:00 | -34.62318 | 150.72900 | 3149 ft | 157 kts | 184° |
| 2026-05-06 06:00 | -34.63373 | 150.72497 | 2803 ft | 163 kts | 212° |
| 2026-05-06 06:00 | -34.64215 | 150.71583 | 2511 ft | 158 kts | 234° |
| 2026-05-06 06:01 | -34.64523 | 150.70484 | 2662 ft | 128 kts | 272° |
| 2026-05-06 06:01 | -34.64533 | 150.69519 | 3155 ft | 104 kts | 276° |
| 2026-05-06 06:01 | -34.64506 | 150.68732 | 3879 ft | 83 kts | 279° |
| 2026-05-06 06:01 | -34.64424 | 150.67968 | 4393 ft | 103 kts | 283° |
| 2026-05-06 06:02 | -34.64273 | 150.67002 | 4399 ft | 130 kts | 284° |
| 2026-05-06 06:02 | -34.64081 | 150.65819 | 3843 ft | 153 kts | 282° |
| 2026-05-06 06:02 | -34.64043 | 150.64446 | 2978 ft | 176 kts | 263° |
| 2026-05-06 06:02 | -34.64756 | 150.63473 | 2478 ft | 148 kts | 186° |
| 2026-05-06 06:03 | -34.65375 | 150.64203 | 2412 ft | 129 kts | 87° |
| 2026-05-06 06:03 | -34.64878 | 150.64781 | 2676 ft | 110 kts | 4° |
| 2026-05-06 06:03 | -34.64065 | 150.64667 | 2750 ft | 127 kts | 359° |
| 2026-05-06 06:03 | -34.63151 | 150.64903 | 2468 ft | 140 kts | 21° |
| 2026-05-06 06:04 | -34.62445 | 150.64977 | 1888 ft | 106 kts | 273° |
| 2026-05-06 06:04 | -34.62642 | 150.63968 | 1435 ft | 125 kts | 247° |
| 2026-05-06 06:04 | -34.63263 | 150.63302 | 1377 ft | 113 kts | 213° |
| 2026-05-06 06:04 | -34.63883 | 150.62727 | 1417 ft | 114 kts | 225° |
| 2026-05-06 06:05 | -34.64347 | 150.61935 | 1338 ft | 115 kts | 240° |
| 2026-05-06 06:05 | -34.64770 | 150.61104 | 1297 ft | 116 kts | 239° |
| 2026-05-06 06:05 | -34.65350 | 150.60444 | 1143 ft | 116 kts | 195° |
| 2026-05-06 06:05 | -34.66100 | 150.60296 | 1193 ft | 107 kts | 191° |
| 2026-05-06 06:06 | -34.66869 | 150.60143 | 1149 ft | 116 kts | 189° |
| 2026-05-06 06:06 | -34.67688 | 150.60018 | 1055 ft | 121 kts | 187° |
| 2026-05-06 06:06 | -34.68534 | 150.59951 | 963 ft | 121 kts | 181° |
| 2026-05-06 06:06 | -34.69361 | 150.59885 | 1012 ft | 121 kts | 195° |
| 2026-05-06 06:07 | -34.70161 | 150.59306 | 1133 ft | 149 kts | 217° |
| 2026-05-06 06:07 | -34.70980 | 150.58458 | 1031 ft | 155 kts | 222° |
| 2026-05-06 06:07 | -34.71757 | 150.57524 | 1024 ft | 159 kts | 225° |
| 2026-05-06 06:07 | -34.72520 | 150.56559 | 1001 ft | 157 kts | 230° |
| 2026-05-06 06:08 | -34.73081 | 150.55449 | 1078 ft | 153 kts | 243° |
| 2026-05-06 06:08 | -34.73405 | 150.54206 | 1114 ft | 156 kts | 257° |
| 2026-05-06 06:08 | -34.73654 | 150.52933 | 1125 ft | 157 kts | 256° |
| 2026-05-06 06:08 | -34.73981 | 150.51675 | 1172 ft | 155 kts | 250° |
| 2026-05-06 06:09 | -34.74464 | 150.50510 | 1199 ft | 154 kts | 239° |
| 2026-05-06 06:09 | -34.74858 | 150.49353 | 1255 ft | 148 kts | 263° |
| 2026-05-06 06:09 | -34.74893 | 150.48091 | 1281 ft | 150 kts | 270° |
| 2026-05-06 06:09 | -34.74927 | 150.46823 | 1338 ft | 149 kts | 268° |
| 2026-05-06 06:10 | -34.74964 | 150.45598 | 1513 ft | 143 kts | 269° |
| 2026-05-06 06:10 | -34.75175 | 150.44385 | 1518 ft | 151 kts | 251° |
| 2026-05-06 06:10 | -34.75650 | 150.43269 | 1569 ft | 148 kts | 238° |
| 2026-05-06 06:10 | -34.76193 | 150.42189 | 1583 ft | 150 kts | 244° |
| 2026-05-06 06:11 | -34.76623 | 150.41048 | 1647 ft | 148 kts | 240° |
| 2026-05-06 06:11 | -34.77401 | 150.40254 | 1605 ft | 151 kts | 206° |
| 2026-05-06 06:11 | -34.78387 | 150.40050 | 1739 ft | 137 kts | 186° |
| 2026-05-06 06:11 | -34.79339 | 150.39924 | 1987 ft | 142 kts | 188° |
| 2026-05-06 06:12 | -34.80360 | 150.39777 | 1933 ft | 152 kts | 186° |
| 2026-05-06 06:12 | -34.81430 | 150.39809 | 1852 ft | 156 kts | 175° |
| 2026-05-06 06:12 | -34.82471 | 150.40160 | 1810 ft | 155 kts | 160° |
| 2026-05-06 06:12 | -34.83445 | 150.40725 | 1793 ft | 154 kts | 153° |
| 2026-05-06 06:13 | -34.84351 | 150.41411 | 1821 ft | 153 kts | 145° |
| 2026-05-06 06:13 | -34.85132 | 150.42294 | 1796 ft | 155 kts | 134° |
| 2026-05-06 06:13 | -34.85635 | 150.42931 | 1723 ft | 159 kts | 135° |
| 2026-05-06 06:13 | -34.86339 | 150.43974 | 1621 ft | 160 kts | 126° |
| 2026-05-06 06:14 | -34.87167 | 150.45493 | 1440 ft | 164 kts | 126° |
| 2026-05-06 06:14 | -34.87653 | 150.46172 | 1321 ft | 157 kts | 144° |
| 2026-05-06 06:14 | -34.88633 | 150.46712 | 1381 ft | 152 kts | 155° |
| 2026-05-06 06:14 | -34.89661 | 150.47039 | 1421 ft | 159 kts | 173° |
| 2026-05-06 06:15 | -34.90743 | 150.46937 | 1480 ft | 151 kts | 187° |
| 2026-05-06 06:15 | -34.91771 | 150.46734 | 1734 ft | 152 kts | 190° |
| 2026-05-06 06:15 | -34.92836 | 150.46666 | 1778 ft | 156 kts | 170° |
| 2026-05-06 06:15 | -34.93737 | 150.47287 | 1546 ft | 142 kts | 128° |
| 2026-05-06 06:16 | -34.94206 | 150.48251 | 1528 ft | 127 kts | 110° |
| 2026-05-06 06:16 | -34.94470 | 150.49250 | 1261 ft | 119 kts | 99° |
| 2026-05-06 06:16 | -34.94584 | 150.50192 | 996 ft | 105 kts | 91° |
| 2026-05-06 06:16 | -34.94626 | 150.50955 | 855 ft | 75 kts | 91° |
| 2026-05-06 06:17 | -34.94660 | 150.51522 | 743 ft | 61 kts | 91° |
| 2026-05-06 06:17 | -34.94684 | 150.51984 | 665 ft | 47 kts | 92° |
| 2026-05-06 06:17 | -34.94699 | 150.52315 | 591 ft | 35 kts | 90° |
| 2026-05-06 06:17 | -34.94709 | 150.52590 | 506 ft | 32 kts | 93° |
| 2026-05-06 06:18 | -34.94724 | 150.52867 | 415 ft | 33 kts | 92° |
| 2026-05-06 06:18 | -34.94735 | 150.53091 | 374 ft | 17 kts | 92° |
| 2026-05-06 06:18 | -34.94742 | 150.53177 | 372 ft | 8 kts | 94° |
| 2026-05-06 06:18 | -34.94746 | 150.53251 | 371 ft | 8 kts | 93° |
| 2026-05-06 06:19 | -34.94748 | 150.53294 | 368 ft | 3 kts | 93° |
| 2026-05-06 06:19 | -34.94748 | 150.53304 | 362 ft | 1 kts | 94° |
| 2026-05-06 06:19 | -34.94751 | 150.53364 | 366 ft | 8 kts | 79° |
| 2026-05-06 06:19 | -34.94690 | 150.53390 | 361 ft | 12 kts | 5° |
| 2026-05-06 06:20 | -34.94627 | 150.53397 | 360 ft | 4 kts | 4° |
| 2026-05-06 06:20 | -34.94585 | 150.53404 | 357 ft | 8 kts | 24° |
| 2026-05-06 06:20 | -34.94547 | 150.53443 | 357 ft | 7 kts | 44° |
| 2026-05-06 06:20 | -34.94518 | 150.53477 | 357 ft | 5 kts | 44° |
| 2026-05-06 06:21 | -34.94497 | 150.53502 | 359 ft | 3 kts | 44° |
| 2026-05-06 06:21 | -34.94485 | 150.53517 | 359 ft | 1 kts | 44° |
| 2026-05-06 06:21 | -34.94483 | 150.53519 | 359 ft | 1 kts | 44° |
| 2026-05-06 06:21 | -34.94472 | 150.53533 | 359 ft | 5 kts | 44° |
| 2026-05-06 06:22 | -34.94441 | 150.53531 | 361 ft | 6 kts | 292° |
| 2026-05-06 06:22 | -34.94454 | 150.53503 | 359 ft | 3 kts | 224° |
| 2026-05-06 06:22 | -34.94457 | 150.53500 | 360 ft | 0 kts | 223° |